createdAt,value
2023-03-26T00:01:43.653Z,8.7
2023-03-26T00:02:57.979Z,8.7
2023-03-26T00:04:12.243Z,8.7
2023-03-26T00:05:26.531Z,8.7
2023-03-26T00:06:40.937Z,8.7
2023-03-26T00:07:55.273Z,8.7
2023-03-26T00:09:09.549Z,8.7
2023-03-26T00:10:23.968Z,8.8
2023-03-26T00:11:38.375Z,8.8
2023-03-26T00:12:52.703Z,8.8
2023-03-26T00:14:06.969Z,8.7
2023-03-26T00:15:21.257Z,8.7
2023-03-26T00:16:35.665Z,8.8
2023-03-26T00:17:49.989Z,8.8
2023-03-26T00:19:04.268Z,8.8
2023-03-26T00:20:18.694Z,8.8
2023-03-26T00:21:33.092Z,8.8
2023-03-26T00:22:47.435Z,8.8
2023-03-26T00:24:01.704Z,8.8
2023-03-26T00:25:16.098Z,8.8
2023-03-26T00:26:30.525Z,8.8
2023-03-26T00:27:44.837Z,8.8
2023-03-26T00:28:59.123Z,8.8
2023-03-26T00:30:13.400Z,8.7
2023-03-26T00:31:27.816Z,8.7
2023-03-26T00:32:42.123Z,8.7
2023-03-26T00:33:56.417Z,8.7
2023-03-26T00:35:10.825Z,8.7
2023-03-26T00:36:25.248Z,8.7
2023-03-26T00:37:39.558Z,8.7
2023-03-26T00:38:53.841Z,8.7
2023-03-26T00:40:08.120Z,8.7
2023-03-26T00:41:22.536Z,8.7
2023-03-26T00:42:36.863Z,8.7
2023-03-26T00:43:51.132Z,8.7
2023-03-26T00:45:05.414Z,8.7
2023-03-26T00:46:19.817Z,8.7
2023-03-26T00:47:34.143Z,8.6
2023-03-26T00:48:48.433Z,8.6
2023-03-26T00:50:02.827Z,8.6
2023-03-26T00:52:31.556Z,8.6
2023-03-26T00:53:45.838Z,8.6
2023-03-26T00:56:14.531Z,8.6
2023-03-26T00:57:28.852Z,8.6
2023-03-26T00:58:43.138Z,8.6
2023-03-26T00:59:57.547Z,8.5
2023-03-26T01:01:11.971Z,8.5
2023-03-26T01:02:26.287Z,8.5
2023-03-26T01:03:40.573Z,8.5
2023-03-26T01:04:54.973Z,8.6
2023-03-26T01:06:09.369Z,8.6
2023-03-26T01:07:23.694Z,8.5
2023-03-26T01:08:37.988Z,8.5
2023-03-26T01:09:52.269Z,8.6
2023-03-26T01:11:06.680Z,8.5
2023-03-26T01:12:20.987Z,8.5
2023-03-26T01:13:35.265Z,8.5
2023-03-26T01:14:49.551Z,8.6
2023-03-26T01:16:03.968Z,8.6
2023-03-26T01:17:18.290Z,8.5
2023-03-26T01:18:32.562Z,8.5
2023-03-26T01:19:46.835Z,8.5
2023-03-26T01:21:01.245Z,8.5
2023-03-26T01:22:15.583Z,8.5
2023-03-26T01:23:29.000Z,8.5
2023-03-26T01:24:44.000Z,8.5
2023-03-26T01:25:58.688Z,8.5
2023-03-26T01:27:13.005Z,8.5
2023-03-26T01:28:27.284Z,8.5
2023-03-26T01:29:41.702Z,8.5
2023-03-26T01:30:56.108Z,8.5
2023-03-26T01:32:10.420Z,8.5
2023-03-26T01:33:24.696Z,8.5
2023-03-26T01:34:38.990Z,8.5
2023-03-26T01:35:53.394Z,8.5
2023-03-26T01:37:07.719Z,8.4
2023-03-26T01:39:36.278Z,8.5
2023-03-26T01:40:50.689Z,8.4
2023-03-26T01:42:05.005Z,8.4
2023-03-26T01:43:19.292Z,8.5
2023-03-26T01:44:33.569Z,8.5
2023-03-26T01:45:47.978Z,8.5
2023-03-26T01:47:02.307Z,8.4
2023-03-26T01:48:16.580Z,8.5
2023-03-26T01:49:30.989Z,8.4
2023-03-26T01:50:45.385Z,8.4
2023-03-26T01:51:59.702Z,8.4
2023-03-26T01:53:13.996Z,8.5
2023-03-26T01:55:42.821Z,8.5
2023-03-26T01:56:57.155Z,8.5
2023-03-26T01:58:11.436Z,8.5
2023-03-26T01:59:25.707Z,8.5
2023-03-26T02:00:40.118Z,8.5
2023-03-26T02:01:54.434Z,8.5
2023-03-26T02:03:08.713Z,8.5
2023-03-26T02:04:23.008Z,8.5
2023-03-26T02:05:37.412Z,8.5
2023-03-26T02:06:51.731Z,8.5
2023-03-26T02:08:06.000Z,8.5
2023-03-26T02:09:20.440Z,8.5
2023-03-26T02:10:34.836Z,8.5
2023-03-26T02:11:49.155Z,8.5
2023-03-26T02:13:03.443Z,8.5
2023-03-26T02:14:17.873Z,8.5
2023-03-26T02:15:32.270Z,8.5
2023-03-26T02:16:46.593Z,8.5
2023-03-26T02:18:00.870Z,8.5
2023-03-26T02:19:15.151Z,8.5
2023-03-26T02:20:29.575Z,8.5
2023-03-26T02:21:43.893Z,8.5
2023-03-26T02:22:58.173Z,8.5
2023-03-26T02:24:12.568Z,8.5
2023-03-26T02:25:26.977Z,8.5
2023-03-26T02:26:41.309Z,8.5
2023-03-26T02:27:55.580Z,8.5
2023-03-26T02:29:09.865Z,8.5
2023-03-26T02:30:24.273Z,8.5
2023-03-26T02:31:38.587Z,8.5
2023-03-26T02:32:52.877Z,8.5
2023-03-26T02:34:07.164Z,8.5
2023-03-26T02:35:21.569Z,8.5
2023-03-26T02:36:35.891Z,8.5
2023-03-26T02:37:50.176Z,8.5
2023-03-26T02:39:04.451Z,8.5
2023-03-26T02:40:18.858Z,8.5
2023-03-26T02:41:33.170Z,8.5
2023-03-26T02:42:47.461Z,8.5
2023-03-26T02:44:01.883Z,8.5
2023-03-26T02:45:16.293Z,8.5
2023-03-26T02:46:30.619Z,8.5
2023-03-26T02:47:44.889Z,8.5
2023-03-26T02:48:59.172Z,8.5
2023-03-26T02:50:13.589Z,8.5
2023-03-26T02:51:27.912Z,8.5
2023-03-26T02:52:42.187Z,8.5
2023-03-26T02:53:56.611Z,8.5
2023-03-26T02:55:11.010Z,8.5
2023-03-26T02:56:25.336Z,8.5
2023-03-26T02:57:39.628Z,8.5
2023-03-26T02:58:53.906Z,8.5
2023-03-26T03:00:08.311Z,8.5
2023-03-26T03:01:22.632Z,8.5
2023-03-26T03:02:36.920Z,8.6
2023-03-26T03:03:51.311Z,8.6
2023-03-26T03:05:05.721Z,8.6
2023-03-26T03:06:20.054Z,8.6
2023-03-26T03:07:34.327Z,8.6
2023-03-26T03:08:48.610Z,8.6
2023-03-26T03:10:03.022Z,8.6
2023-03-26T03:11:17.334Z,8.6
2023-03-26T03:12:31.625Z,8.6
2023-03-26T03:13:45.891Z,8.6
2023-03-26T03:15:00.304Z,8.6
2023-03-26T03:16:14.635Z,8.6
2023-03-26T03:17:28.905Z,8.6
2023-03-26T03:18:43.195Z,8.6
2023-03-26T03:19:57.596Z,8.6
2023-03-26T03:21:11.913Z,8.6
2023-03-26T03:22:26.194Z,8.6
2023-03-26T03:23:40.618Z,8.6
2023-03-26T03:24:55.030Z,8.6
2023-03-26T03:26:09.356Z,8.6
2023-03-26T03:27:23.633Z,8.6
2023-03-26T03:28:38.066Z,8.6
2023-03-26T03:29:52.457Z,8.6
2023-03-26T03:31:06.782Z,8.6
2023-03-26T03:32:21.072Z,8.6
2023-03-26T03:33:35.354Z,8.6
2023-03-26T03:34:49.751Z,8.6
2023-03-26T03:36:04.072Z,8.6
2023-03-26T03:37:18.370Z,8.6
2023-03-26T03:38:32.769Z,8.6
2023-03-26T03:39:47.167Z,8.6
2023-03-26T03:41:01.501Z,8.6
2023-03-26T03:42:15.775Z,8.6
2023-03-26T03:43:30.064Z,8.6
2023-03-26T03:44:44.469Z,8.6
2023-03-26T03:45:58.783Z,8.7
2023-03-26T03:47:13.077Z,8.7
2023-03-26T03:48:27.346Z,8.7
2023-03-26T03:49:41.750Z,8.7
2023-03-26T03:50:56.078Z,8.7
2023-03-26T03:53:24.646Z,8.7
2023-03-26T03:54:39.056Z,8.7
2023-03-26T03:55:53.370Z,8.7
2023-03-26T03:57:07.644Z,8.7
2023-03-26T03:58:21.939Z,8.7
2023-03-26T03:59:36.334Z,8.7
2023-03-26T04:00:50.653Z,8.7
2023-03-26T04:03:19.228Z,8.7
2023-03-26T04:04:33.624Z,8.7
2023-03-26T04:05:47.957Z,8.7
2023-03-26T04:07:02.226Z,8.7
2023-03-26T04:08:16.659Z,8.7
2023-03-26T04:09:31.064Z,8.7
2023-03-26T04:11:59.663Z,8.7
2023-03-26T04:13:13.940Z,8.7
2023-03-26T04:14:28.363Z,8.7
2023-03-26T04:15:42.684Z,8.7
2023-03-26T04:16:56.952Z,8.8
2023-03-26T04:18:11.377Z,8.8
2023-03-26T04:19:25.784Z,8.7
2023-03-26T04:20:40.123Z,8.7
2023-03-26T04:21:54.393Z,8.8
2023-03-26T04:23:08.805Z,8.7
2023-03-26T04:24:23.199Z,8.8
2023-03-26T04:25:37.519Z,8.8
2023-03-26T04:26:51.812Z,8.8
2023-03-26T04:28:06.080Z,8.8
2023-03-26T04:29:20.494Z,8.8
2023-03-26T04:30:34.814Z,8.8
2023-03-26T04:31:49.096Z,8.8
2023-03-26T04:33:03.371Z,8.8
2023-03-26T04:34:17.796Z,8.7
2023-03-26T04:35:32.104Z,8.7
2023-03-26T04:36:46.383Z,8.7
2023-03-26T04:38:00.669Z,8.7
2023-03-26T04:39:15.085Z,8.7
2023-03-26T04:40:29.404Z,8.8
2023-03-26T04:41:43.638Z,8.7
2023-03-26T04:42:57.988Z,8.7
2023-03-26T04:44:12.197Z,8.7
2023-03-26T04:45:26.563Z,8.7
2023-03-26T04:46:40.894Z,8.7
2023-03-26T04:47:55.114Z,8.7
2023-03-26T04:49:09.353Z,8.8
2023-03-26T04:50:23.711Z,8.8
2023-03-26T04:51:38.036Z,8.8
2023-03-26T04:52:52.467Z,8.8
2023-03-26T04:54:06.785Z,8.8
2023-03-26T04:55:21.146Z,8.8
2023-03-26T04:56:35.453Z,8.8
2023-03-26T04:57:49.682Z,8.8
2023-03-26T04:59:03.920Z,8.8
2023-03-26T05:00:18.141Z,8.8
2023-03-26T05:01:32.371Z,8.8
2023-03-26T05:02:46.663Z,8.8
2023-03-26T05:04:00.911Z,8.8
2023-03-26T05:05:15.269Z,8.8
2023-03-26T05:06:29.506Z,8.8
2023-03-26T05:07:43.850Z,8.8
2023-03-26T05:08:58.153Z,8.8
2023-03-26T05:10:12.404Z,8.8
2023-03-26T05:11:26.629Z,8.8
2023-03-26T05:12:40.847Z,8.8
2023-03-26T05:13:55.079Z,8.8
2023-03-26T05:15:09.365Z,8.8
2023-03-26T05:16:23.615Z,8.8
2023-03-26T05:17:37.840Z,8.8
2023-03-26T05:18:52.062Z,8.7
2023-03-26T05:20:06.299Z,8.8
2023-03-26T05:21:20.625Z,8.8
2023-03-26T05:22:34.839Z,8.8
2023-03-26T05:23:49.062Z,8.8
2023-03-26T05:25:03.417Z,8.8
2023-03-26T05:26:17.644Z,8.8
2023-03-26T05:27:31.946Z,8.8
2023-03-26T05:28:46.185Z,8.8
2023-03-26T05:30:00.406Z,8.7
2023-03-26T05:31:14.635Z,8.7
2023-03-26T05:33:43.297Z,8.7
2023-03-26T05:34:57.533Z,8.7
2023-03-26T05:36:11.772Z,8.8
2023-03-26T05:37:25.989Z,8.7
2023-03-26T05:39:54.527Z,8.7
2023-03-26T05:41:08.766Z,8.8
2023-03-26T05:42:23.122Z,8.8
2023-03-26T05:43:37.357Z,8.8
2023-03-26T05:44:51.579Z,8.8
2023-03-26T05:46:05.880Z,8.8
2023-03-26T05:47:20.117Z,8.8
2023-03-26T05:48:34.342Z,8.8
2023-03-26T05:49:48.731Z,8.8
2023-03-26T05:51:02.949Z,8.8
2023-03-26T05:52:17.253Z,8.8
2023-03-26T05:53:31.479Z,8.8
2023-03-26T05:56:00.069Z,8.8
2023-03-26T05:57:14.286Z,8.8
2023-03-26T05:58:28.595Z,8.9
2023-03-26T05:59:42.832Z,8.8
2023-03-26T06:00:57.056Z,8.8
2023-03-26T06:02:11.285Z,8.8
2023-03-26T06:03:25.512Z,8.8
2023-03-26T06:04:39.804Z,8.9
2023-03-26T06:05:54.046Z,8.9
2023-03-26T06:07:08.283Z,8.8
2023-03-26T06:08:22.499Z,8.8
2023-03-26T06:09:36.727Z,8.8
2023-03-26T06:10:51.032Z,8.8
2023-03-26T06:13:19.506Z,8.8
2023-03-26T06:14:33.859Z,8.8
2023-03-26T06:15:48.099Z,8.8
2023-03-26T06:17:02.394Z,8.8
2023-03-26T06:18:16.638Z,8.9
2023-03-26T06:19:30.993Z,8.9
2023-03-26T06:20:45.210Z,8.9
2023-03-26T06:24:27.977Z,9
2023-03-26T06:25:42.200Z,9
2023-03-26T06:26:56.434Z,9
2023-03-26T06:28:10.655Z,9
2023-03-26T06:29:24.955Z,9
2023-03-26T06:30:39.190Z,9.1
2023-03-26T06:31:53.571Z,9.1
2023-03-26T06:33:07.793Z,9.2
2023-03-26T06:34:22.026Z,9.2
2023-03-26T06:35:36.330Z,9.2
2023-03-26T06:36:50.563Z,9.3
2023-03-26T06:38:04.786Z,9.3
2023-03-26T06:39:19.014Z,9.4
2023-03-26T06:40:33.249Z,9.4
2023-03-26T06:41:47.539Z,9.4
2023-03-26T06:43:01.789Z,9.4
2023-03-26T06:44:16.144Z,9.3
2023-03-26T06:46:44.595Z,9.4
2023-03-26T06:47:58.877Z,9.4
2023-03-26T06:49:13.137Z,9.5
2023-03-26T06:50:27.361Z,9.5
2023-03-26T06:51:41.575Z,9.4
2023-03-26T06:52:55.807Z,9.5
2023-03-26T06:54:10.102Z,9.6
2023-03-26T06:55:24.353Z,9.5
2023-03-26T06:56:38.579Z,9.5
2023-03-26T06:57:52.790Z,9.5
2023-03-26T06:59:07.029Z,9.6
2023-03-26T07:00:21.332Z,9.6
2023-03-26T07:01:35.569Z,9.6
2023-03-26T07:02:49.786Z,9.6
2023-03-26T07:04:04.016Z,9.7
2023-03-26T07:05:18.254Z,9.7
2023-03-26T07:06:32.556Z,9.7
2023-03-26T07:07:46.792Z,9.7
2023-03-26T07:09:01.009Z,9.7
2023-03-26T07:10:15.231Z,9.7
2023-03-26T07:11:29.607Z,9.7
2023-03-26T07:12:43.917Z,9.6
2023-03-26T07:13:58.157Z,9.6
2023-03-26T07:15:12.378Z,9.6
2023-03-26T07:16:26.757Z,9.7
2023-03-26T07:17:40.976Z,9.7
2023-03-26T07:18:55.267Z,9.7
2023-03-26T07:20:09.513Z,9.7
2023-03-26T07:21:23.864Z,9.7
2023-03-26T07:22:38.099Z,9.7
2023-03-26T07:23:52.305Z,9.7
2023-03-26T07:25:06.624Z,9.7
2023-03-26T07:26:20.863Z,9.6
2023-03-26T07:27:35.093Z,9.7
2023-03-26T07:28:49.318Z,9.7
2023-03-26T07:30:03.539Z,9.8
2023-03-26T07:31:17.827Z,9.8
2023-03-26T07:32:32.072Z,9.9
2023-03-26T07:33:46.454Z,9.9
2023-03-26T07:35:00.676Z,9.8
2023-03-26T07:36:14.898Z,9.8
2023-03-26T07:37:29.204Z,9.8
2023-03-26T07:38:43.438Z,9.9
2023-03-26T07:39:57.672Z,10
2023-03-26T07:41:11.893Z,10
2023-03-26T07:42:26.116Z,10.1
2023-03-26T07:43:40.410Z,10.2
2023-03-26T07:44:54.663Z,10.2
2023-03-26T07:46:08.885Z,10.2
2023-03-26T07:47:23.121Z,10.3
2023-03-26T07:48:37.460Z,10.3
2023-03-26T07:49:51.766Z,10.2
2023-03-26T07:51:05.993Z,10.2
2023-03-26T07:53:34.453Z,10.5
2023-03-26T07:54:48.687Z,10.6
2023-03-26T07:56:02.974Z,10.7
2023-03-26T07:57:17.225Z,10.7
2023-03-26T07:58:31.459Z,10.7
2023-03-26T07:59:45.683Z,10.6
2023-03-26T08:00:59.894Z,10.6
2023-03-26T08:02:14.194Z,10.7
2023-03-26T08:03:28.442Z,10.8
2023-03-26T08:04:42.671Z,10.8
2023-03-26T08:05:56.903Z,10.9
2023-03-26T08:07:11.120Z,11
2023-03-26T08:08:25.415Z,11.1
2023-03-26T08:09:39.657Z,11.2
2023-03-26T08:10:53.891Z,11.3
2023-03-26T08:13:22.349Z,11.3
2023-03-26T08:15:50.883Z,11.3
2023-03-26T08:17:05.119Z,11.3
2023-03-26T08:18:19.337Z,11.2
2023-03-26T08:19:33.696Z,11.2
2023-03-26T08:20:48.008Z,11.2
2023-03-26T08:22:02.250Z,11.3
2023-03-26T08:23:16.467Z,11.3
2023-03-26T08:24:30.690Z,11.2
2023-03-26T08:25:44.929Z,11.1
2023-03-26T08:26:59.234Z,11.1
2023-03-26T08:28:13.461Z,11.2
2023-03-26T08:29:27.685Z,11.3
2023-03-26T08:30:41.919Z,11.3
2023-03-26T08:31:56.143Z,11.3
2023-03-26T08:33:10.437Z,11.2
2023-03-26T08:34:24.682Z,11.2
2023-03-26T08:35:38.910Z,11.1
2023-03-26T08:36:53.141Z,11
2023-03-26T08:38:07.516Z,11
2023-03-26T08:39:21.799Z,11.1
2023-03-26T08:40:36.041Z,11.1
2023-03-26T08:41:50.281Z,11.3
2023-03-26T08:43:04.494Z,11.4
2023-03-26T08:44:18.734Z,11.4
2023-03-26T08:45:33.029Z,11.4
2023-03-26T08:46:47.262Z,11.5
2023-03-26T08:48:01.485Z,11.5
2023-03-26T08:49:15.710Z,11.5
2023-03-26T08:50:29.939Z,11.4
2023-03-26T08:51:44.247Z,11.3
2023-03-26T08:52:58.486Z,11.2
2023-03-26T08:54:12.716Z,11.2
2023-03-26T08:55:26.929Z,11.1
2023-03-26T08:56:41.169Z,11.1
2023-03-26T08:57:55.458Z,11.1
2023-03-26T08:59:09.703Z,11.1
2023-03-26T09:00:23.937Z,11.1
2023-03-26T09:01:38.163Z,11.1
2023-03-26T09:02:52.391Z,11
2023-03-26T09:04:06.691Z,11.1
2023-03-26T09:05:20.932Z,11
2023-03-26T09:06:35.147Z,11
2023-03-26T09:07:49.385Z,10.9
2023-03-26T09:09:03.672Z,10.9
2023-03-26T09:10:17.958Z,10.8
2023-03-26T09:11:32.241Z,10.8
2023-03-26T09:12:46.526Z,10.8
2023-03-26T09:13:59.818Z,10.8
2023-03-26T09:15:14.128Z,10.7
2023-03-26T09:16:28.362Z,10.6
2023-03-26T09:17:42.599Z,10.5
2023-03-26T09:18:56.808Z,10.4
2023-03-26T09:20:11.169Z,10.4
2023-03-26T09:21:25.463Z,10.4
2023-03-26T09:22:39.703Z,10.5
2023-03-26T09:23:53.930Z,10.5
2023-03-26T09:26:22.393Z,10.6
2023-03-26T09:27:36.693Z,10.7
2023-03-26T09:28:50.929Z,10.7
2023-03-26T09:30:05.151Z,10.8
2023-03-26T09:31:19.369Z,10.9
2023-03-26T09:32:33.601Z,10.8
2023-03-26T09:33:47.913Z,10.8
2023-03-26T09:35:02.136Z,10.9
2023-03-26T09:36:16.379Z,10.9
2023-03-26T09:37:30.590Z,10.9
2023-03-26T09:38:44.828Z,10.8
2023-03-26T09:39:59.128Z,10.8
2023-03-26T09:42:27.585Z,10.7
2023-03-26T09:43:41.819Z,10.6
2023-03-26T09:46:10.351Z,10.7
2023-03-26T09:47:24.590Z,10.7
2023-03-26T09:48:38.807Z,10.7
2023-03-26T09:49:53.029Z,10.7
2023-03-26T09:51:07.256Z,10.7
2023-03-26T09:52:21.558Z,10.7
2023-03-26T09:53:35.813Z,10.7
2023-03-26T09:54:50.036Z,10.7
2023-03-26T09:56:04.257Z,10.6
2023-03-26T09:57:18.481Z,10.5
2023-03-26T09:58:32.773Z,10.5
2023-03-26T09:59:47.015Z,10.4
2023-03-26T10:01:01.239Z,10.5
2023-03-26T10:02:15.468Z,10.5
2023-03-26T10:03:29.695Z,10.5
2023-03-26T10:04:43.990Z,10.5
2023-03-26T10:07:12.589Z,10.6
2023-03-26T10:08:25.915Z,10.6
2023-03-26T10:09:40.210Z,10.5
2023-03-26T10:10:54.501Z,10.4
2023-03-26T10:12:07.844Z,10.3
2023-03-26T10:13:21.187Z,10.3
2023-03-26T10:14:35.460Z,10.3
2023-03-26T10:17:04.025Z,10.3
2023-03-26T10:18:18.314Z,10.3
2023-03-26T10:19:32.617Z,10.1
2023-03-26T10:20:46.895Z,10.1
2023-03-26T10:22:00.187Z,10.2
2023-03-26T10:23:14.416Z,10.1
2023-03-26T10:24:28.718Z,10.1
2023-03-26T10:25:42.961Z,10.2
2023-03-26T10:26:57.197Z,10.3
2023-03-26T10:28:11.410Z,10.4
2023-03-26T10:29:25.638Z,10.4
2023-03-26T10:30:39.941Z,10.5
2023-03-26T10:31:54.173Z,10.5
2023-03-26T10:33:08.406Z,10.6
2023-03-26T10:34:22.631Z,10.7
2023-03-26T10:35:36.861Z,10.7
2023-03-26T10:36:51.164Z,10.7
2023-03-26T10:38:05.397Z,10.8
2023-03-26T10:39:19.620Z,10.8
2023-03-26T10:40:33.851Z,10.7
2023-03-26T10:41:48.085Z,10.7
2023-03-26T10:43:02.374Z,10.6
2023-03-26T10:44:16.619Z,10.5
2023-03-26T10:45:30.849Z,10.4
2023-03-26T10:47:59.302Z,10.3
2023-03-26T10:49:13.604Z,10.4
2023-03-26T10:50:27.849Z,10.5
2023-03-26T10:51:42.073Z,10.6
2023-03-26T10:52:56.360Z,10.7
2023-03-26T10:54:09.674Z,10.8
2023-03-26T10:55:23.959Z,10.5
2023-03-26T10:56:38.244Z,10.6
2023-03-26T10:57:51.543Z,10.8
2023-03-26T10:59:05.851Z,10.9
2023-03-26T11:00:20.085Z,11
2023-03-26T11:01:34.321Z,11
2023-03-26T11:02:48.540Z,11.1
2023-03-26T11:04:02.755Z,11.2
2023-03-26T11:05:17.071Z,11.2
2023-03-26T11:06:31.310Z,11.2
2023-03-26T11:07:45.527Z,11.2
2023-03-26T11:08:59.750Z,11.3
2023-03-26T11:10:13.990Z,11.4
2023-03-26T11:11:28.285Z,11.4
2023-03-26T11:12:42.520Z,11.2
2023-03-26T11:13:56.747Z,11.3
2023-03-26T11:15:10.970Z,11.4
2023-03-26T11:16:25.205Z,11.3
2023-03-26T11:17:39.509Z,11.4
2023-03-26T11:18:53.746Z,11.4
2023-03-26T11:20:07.983Z,11.4
2023-03-26T11:21:22.194Z,11.4
2023-03-26T11:22:36.427Z,11.3
2023-03-26T11:23:50.713Z,11.3
2023-03-26T11:25:04.971Z,11.3
2023-03-26T11:26:19.198Z,11.2
2023-03-26T11:28:47.697Z,11.2
2023-03-26T11:30:01.996Z,11.2
2023-03-26T11:32:30.576Z,11.2
2023-03-26T11:33:43.916Z,11.2
2023-03-26T11:34:58.216Z,11.1
2023-03-26T11:36:12.491Z,11.1
2023-03-26T11:37:25.827Z,10.9
2023-03-26T11:38:40.119Z,10.7
2023-03-26T11:39:54.424Z,10.5
2023-03-26T11:41:08.833Z,10.5
2023-03-26T11:42:22.176Z,10.3
2023-03-26T11:43:35.473Z,10.2
2023-03-26T11:44:49.702Z,9.9
2023-03-26T11:46:03.929Z,9.7
2023-03-26T11:47:18.163Z,9.7
2023-03-26T11:48:32.388Z,9.7
2023-03-26T11:49:46.000Z,9.8
2023-03-26T11:51:00.925Z,9.8
2023-03-26T11:52:15.155Z,9.7
2023-03-26T11:53:29.380Z,9.6
2023-03-26T11:54:43.597Z,9.4
2023-03-26T11:55:57.912Z,9.4
2023-03-26T11:57:12.156Z,9.4
2023-03-26T11:58:26.372Z,9.5
2023-03-26T11:59:40.593Z,9.4
2023-03-26T12:00:54.835Z,9.3
2023-03-26T12:03:23.359Z,9.3
2023-03-26T12:04:37.587Z,9.3
2023-03-26T12:05:51.811Z,9.3
2023-03-26T12:07:06.041Z,9.3
2023-03-26T12:08:20.351Z,9.4
2023-03-26T12:09:34.580Z,9.4
2023-03-26T12:10:48.823Z,9.5
2023-03-26T12:12:03.039Z,9.6
2023-03-26T12:13:17.269Z,9.6
2023-03-26T12:14:31.636Z,9.6
2023-03-26T12:15:45.913Z,9.6
2023-03-26T12:16:59.215Z,9.6
2023-03-26T12:18:13.428Z,9.7
2023-03-26T12:19:27.743Z,9.7
2023-03-26T12:20:41.982Z,9.7
2023-03-26T12:21:56.211Z,9.7
2023-03-26T12:23:10.424Z,9.6
2023-03-26T12:24:24.649Z,9.6
2023-03-26T12:25:38.961Z,9.5
2023-03-26T12:26:53.191Z,9.5
2023-03-26T12:28:07.419Z,9.5
2023-03-26T12:29:21.648Z,9.5
2023-03-26T12:30:35.883Z,9.6
2023-03-26T12:31:50.183Z,9.6
2023-03-26T12:33:04.412Z,9.7
2023-03-26T12:34:18.648Z,9.6
2023-03-26T12:35:32.863Z,9.7
2023-03-26T12:36:47.103Z,9.6
2023-03-26T12:38:01.388Z,9.5
2023-03-26T12:39:15.631Z,9.5
2023-03-26T12:40:29.861Z,9.5
2023-03-26T12:41:44.080Z,9.6
2023-03-26T12:42:58.309Z,9.6
2023-03-26T12:44:12.612Z,9.6
2023-03-26T12:46:41.090Z,9.6
2023-03-26T12:47:55.371Z,9.6
2023-03-26T12:49:09.646Z,9.7
2023-03-26T12:50:23.941Z,9.6
2023-03-26T12:51:38.239Z,9.7
2023-03-26T12:52:51.520Z,9.6
2023-03-26T12:54:05.761Z,9.6
2023-03-26T12:55:20.057Z,9.5
2023-03-26T12:56:34.289Z,9.5
2023-03-26T12:57:48.527Z,9.5
2023-03-26T12:59:02.749Z,9.5
2023-03-26T13:01:31.285Z,9.5
2023-03-26T13:02:45.525Z,9.3
2023-03-26T13:03:59.745Z,9.3
2023-03-26T13:05:13.975Z,9.3
2023-03-26T13:06:28.199Z,9.3
2023-03-26T13:07:42.487Z,9.3
2023-03-26T13:08:56.733Z,9.3
2023-03-26T13:10:10.964Z,9.3
2023-03-26T13:11:25.194Z,9.3
2023-03-26T13:12:39.419Z,9.3
2023-03-26T13:13:53.708Z,9.3
2023-03-26T13:15:07.951Z,9.3
2023-03-26T13:16:22.175Z,9.3
2023-03-26T13:17:36.415Z,9.3
2023-03-26T13:18:50.644Z,9.2
2023-03-26T13:20:04.932Z,9.2
2023-03-26T13:21:19.166Z,9.2
2023-03-26T13:22:33.396Z,9.2
2023-03-26T13:23:47.681Z,9.1
2023-03-26T13:25:01.019Z,9.1
2023-03-26T13:26:15.306Z,9.1
2023-03-26T13:27:28.595Z,9.1
2023-03-26T13:28:42.832Z,9.1
2023-03-26T13:29:57.131Z,9.1
2023-03-26T13:31:11.366Z,9.1
2023-03-26T13:32:25.590Z,9.2
2023-03-26T13:33:39.821Z,9.2
2023-03-26T13:34:54.040Z,9.3
2023-03-26T13:36:08.352Z,9.3
2023-03-26T13:37:22.588Z,9.2
2023-03-26T13:38:36.811Z,9.2
2023-03-26T13:39:51.168Z,9.2
2023-03-26T13:41:05.378Z,9.2
2023-03-26T13:42:19.687Z,9.2
2023-03-26T13:43:33.929Z,9.2
2023-03-26T13:44:48.152Z,9
2023-03-26T13:46:02.372Z,9
2023-03-26T13:47:16.611Z,9
2023-03-26T13:48:30.923Z,9
2023-03-26T13:49:45.138Z,9.1
2023-03-26T13:50:59.365Z,9.1
2023-03-26T13:52:13.600Z,9.1
2023-03-26T13:53:27.820Z,9.2
2023-03-26T13:54:42.132Z,9.3
2023-03-26T13:55:56.360Z,9.3
2023-03-26T13:57:10.589Z,9.2
2023-03-26T13:58:24.821Z,9.1
2023-03-26T14:00:53.344Z,9.2
2023-03-26T14:03:21.818Z,9.2
2023-03-26T14:07:04.558Z,9.4
2023-03-26T14:08:18.808Z,9.4
2023-03-26T14:09:33.033Z,9.4
2023-03-26T14:10:47.251Z,9.5
2023-03-26T14:12:01.496Z,9.6
2023-03-26T14:13:15.785Z,9.6
2023-03-26T14:14:30.035Z,9.6
2023-03-26T14:15:44.263Z,9.6
2023-03-26T14:16:58.487Z,9.6
2023-03-26T14:18:12.702Z,9.4
2023-03-26T14:19:27.007Z,9.5
2023-03-26T14:20:41.242Z,9.5
2023-03-26T14:21:55.613Z,9.5
2023-03-26T14:23:09.836Z,9.5
2023-03-26T14:24:24.063Z,9.5
2023-03-26T14:25:38.369Z,9.6
2023-03-26T14:26:52.616Z,9.7
2023-03-26T14:28:06.847Z,9.7
2023-03-26T14:29:21.063Z,9.5
2023-03-26T14:30:35.295Z,9.5
2023-03-26T14:31:49.599Z,9.5
2023-03-26T14:33:03.838Z,9.4
2023-03-26T14:34:18.049Z,9.5
2023-03-26T14:35:32.293Z,9.6
2023-03-26T14:36:46.519Z,9.6
2023-03-26T14:38:00.811Z,9.5
2023-03-26T14:39:15.059Z,9.5
2023-03-26T14:40:29.284Z,9.5
2023-03-26T14:41:43.497Z,9.5
2023-03-26T14:42:57.722Z,9.3
2023-03-26T14:44:12.036Z,9.2
2023-03-26T14:45:26.264Z,9.2
2023-03-26T14:46:40.507Z,9.2
2023-03-26T14:47:54.719Z,9.1
2023-03-26T14:49:08.941Z,9
2023-03-26T14:50:23.241Z,8.9
2023-03-26T14:51:37.487Z,8.8
2023-03-26T14:52:51.776Z,8.8
2023-03-26T14:54:05.113Z,8.8
2023-03-26T14:55:19.412Z,8.9
2023-03-26T14:56:33.690Z,8.9
2023-03-26T14:57:47.980Z,8.8
2023-03-26T14:59:02.267Z,8.8
2023-03-26T15:00:16.538Z,8.7
2023-03-26T15:01:30.843Z,8.7
2023-03-26T15:02:45.116Z,8.6
2023-03-26T15:03:58.428Z,8.5
2023-03-26T15:05:12.639Z,8.5
2023-03-26T15:06:26.949Z,8.5
2023-03-26T15:07:41.192Z,8.5
2023-03-26T15:08:55.000Z,8.6
2023-03-26T15:10:09.630Z,8.6
2023-03-26T15:11:23.869Z,8.7
2023-03-26T15:12:38.157Z,8.6
2023-03-26T15:15:06.636Z,8.5
2023-03-26T15:16:20.859Z,8.5
2023-03-26T15:17:35.089Z,8.5
2023-03-26T15:18:49.391Z,8.5
2023-03-26T15:20:03.622Z,8.5
2023-03-26T15:21:17.857Z,8.5
2023-03-26T15:23:46.420Z,8.5
2023-03-26T15:25:00.731Z,8.5
2023-03-26T15:26:14.965Z,8.5
2023-03-26T15:27:29.186Z,8.5
2023-03-26T15:28:43.414Z,8.5
2023-03-26T15:29:57.657Z,8.4
2023-03-26T15:31:11.940Z,8.5
2023-03-26T15:32:26.197Z,8.5
2023-03-26T15:33:40.424Z,8.6
2023-03-26T15:34:54.640Z,8.6
2023-03-26T15:36:08.868Z,8.6
2023-03-26T15:37:23.164Z,8.5
2023-03-26T15:38:37.405Z,8.5
2023-03-26T15:39:51.639Z,8.5
2023-03-26T15:41:05.871Z,8.5
2023-03-26T15:43:34.000Z,8.5
2023-03-26T15:44:48.633Z,8.5
2023-03-26T15:46:02.865Z,8.5
2023-03-26T15:47:17.073Z,8.6
2023-03-26T15:48:31.301Z,8.6
2023-03-26T15:49:45.614Z,8.5
2023-03-26T15:50:59.850Z,8.5
2023-03-26T15:53:28.301Z,8.6
2023-03-26T15:54:42.524Z,8.6
2023-03-26T15:55:56.000Z,8.6
2023-03-26T15:57:11.075Z,8.6
2023-03-26T15:58:25.290Z,8.7
2023-03-26T15:59:39.530Z,8.7
2023-03-26T16:00:53.747Z,8.7
2023-03-26T16:02:08.043Z,8.7
2023-03-26T16:03:22.283Z,8.6
2023-03-26T16:04:36.510Z,8.7
2023-03-26T16:05:50.737Z,8.6
2023-03-26T16:07:04.962Z,8.6
2023-03-26T16:08:19.334Z,8.7
2023-03-26T16:09:33.605Z,8.7
2023-03-26T16:10:46.909Z,8.7
2023-03-26T16:12:01.123Z,8.8
2023-03-26T16:13:15.437Z,8.7
2023-03-26T16:14:29.668Z,8.7
2023-03-26T16:15:43.904Z,8.7
2023-03-26T16:18:12.346Z,8.8
2023-03-26T16:19:26.650Z,8.7
2023-03-26T16:20:40.890Z,8.7
2023-03-26T16:21:55.127Z,8.7
2023-03-26T16:23:09.344Z,8.7
2023-03-26T16:24:23.570Z,8.7
2023-03-26T16:25:37.863Z,8.7
2023-03-26T16:26:52.116Z,8.6
2023-03-26T16:28:06.342Z,8.6
2023-03-26T16:29:20.572Z,8.5
2023-03-26T16:30:34.801Z,8.5
2023-03-26T16:31:49.099Z,8.4
2023-03-26T16:33:03.326Z,8.4
2023-03-26T16:34:17.552Z,8.4
2023-03-26T16:35:31.788Z,8.4
2023-03-26T16:36:46.005Z,8.4
2023-03-26T16:38:00.305Z,8.4
2023-03-26T16:39:14.553Z,8.3
2023-03-26T16:40:28.785Z,8.3
2023-03-26T16:41:43.060Z,8.3
2023-03-26T16:42:56.398Z,8.3
2023-03-26T16:44:10.697Z,8.3
2023-03-26T16:45:23.982Z,8.3
2023-03-26T16:46:38.219Z,8.3
2023-03-26T16:47:52.511Z,8.3
2023-03-26T16:49:06.750Z,8.3
2023-03-26T16:50:20.975Z,8.3
2023-03-26T16:51:35.208Z,8.4
2023-03-26T16:52:49.424Z,8.4
2023-03-26T16:54:03.734Z,8.4
2023-03-26T16:55:17.971Z,8.3
2023-03-26T16:56:32.194Z,8.3
2023-03-26T16:57:46.417Z,8.3
2023-03-26T16:59:00.645Z,8.2
2023-03-26T17:01:29.204Z,8.2
2023-03-26T17:02:43.425Z,8.1
2023-03-26T17:03:57.644Z,8.1
2023-03-26T17:05:11.874Z,8.1
2023-03-26T17:06:26.173Z,8.1
2023-03-26T17:07:40.409Z,8.1
2023-03-26T17:08:54.640Z,8.1
2023-03-26T17:10:08.865Z,8.1
2023-03-26T17:11:23.092Z,8.1
2023-03-26T17:12:37.390Z,8
2023-03-26T17:13:51.626Z,8.1
2023-03-26T17:15:05.000Z,8.1
2023-03-26T17:16:20.143Z,8
2023-03-26T17:17:33.483Z,8
2023-03-26T17:18:47.765Z,8
2023-03-26T17:21:15.275Z,8
2023-03-26T17:22:29.576Z,7.9
2023-03-26T17:23:43.824Z,7.9
2023-03-26T17:24:58.060Z,7.9
2023-03-26T17:26:12.283Z,7.9
2023-03-26T17:27:26.504Z,8
2023-03-26T17:28:40.799Z,7.9
2023-03-26T17:29:55.035Z,7.9
2023-03-26T17:31:09.275Z,7.9
2023-03-26T17:32:23.488Z,7.9
2023-03-26T17:33:37.717Z,7.9
2023-03-26T17:34:52.031Z,7.9
2023-03-26T17:36:06.262Z,7.8
2023-03-26T17:37:20.500Z,7.8
2023-03-26T17:38:34.717Z,7.8
2023-03-26T17:39:48.950Z,7.8
2023-03-26T17:41:03.236Z,7.8
2023-03-26T17:42:17.494Z,7.8
2023-03-26T17:43:31.722Z,7.7
2023-03-26T17:44:46.084Z,7.8
2023-03-26T17:46:00.307Z,7.7